Terminal Aerodrome Forecast
Issued by NWS Portland, OR

Home | Current Version | Previous Version | Text Only | Print | Product List | Glossary On
Versions: 1 2 3 4 5 6 7 8 9 10 11 12 13 14 15 16 17 18 19 20 21 22 23 24 25 26 27 28 29 30 31 32 33 34 35 36
000
FTUS46 KPQR 291950 AAA
TAFAST
TAF AMD
KAST 291950Z 2920/3018 25006KT P6SM OVC012
     FM292130 30010KT P6SM SCT012
     FM292300 31015G23KT P6SM SKC
     FM300300 31012KT P6SM BKN006
     FM300600 31009KT P6SM OVC008
     FM301000 28008KT P6SM OVC012=

USA.gov is the U.S. government's official web portal to all federal, state and local government web resources and services.